Time;durP1;ratioP1;P1;durP2;ratioP2;P2;SDS_P1;SDS_P2;PMS_P1;PMS_P2;Temp;Humidity;BMP_temperature;BMP_pressure;BME280_temperature;BME280_humidity;BME280_pressure;Samples;Min_cycle;Max_cycle;Signal;HPM_P1;HPM_P2
2022/09/05 00:06:58;;;;;;;8.53;4.93;;;;;;;16.72;95.09;100951.63;5146104;27;20624;-65
2022/09/05 00:10:10;;;;;;;16.27;5.57;;;;;;;16.85;94.71;100956.53;5149221;27;20304;-64
2022/09/05 00:12:58;;;;;;;8.13;5.00;;;;;;;16.93;94.67;100946.63;5150908;27;20340;-64
2022/09/05 00:16:00;;;;;;;11.97;5.40;;;;;;;16.94;93.76;100908.75;5165970;27;20303;-65
2022/09/05 00:19:09;;;;;;;6.47;3.70;;;;;;;17.22;93.52;100925.44;5132979;27;20340;-65
2022/09/05 00:22:26;;;;;;;8.10;3.00;;;;;;;17.42;92.42;100900.97;5159840;27;20284;-63
2022/09/05 00:26:05;;;;;;;8.33;3.37;;;;;;;17.51;90.97;100872.50;5157999;27;20296;-66
2022/09/05 00:28:55;;;;;;;13.63;2.90;;;;;;;17.74;89.69;100853.16;5156590;27;20307;-66
2022/09/05 00:31:50;;;;;;;12.53;3.63;;;;;;;17.86;87.74;100848.31;5165925;27;20345;-66
2022/09/05 00:34:53;;;;;;;7.83;3.03;;;;;;;18.16;87.06;100849.88;5165783;27;20325;-66
2022/09/05 00:41:12;;;;;;;15.13;4.53;;;;;;;18.70;83.95;100777.13;5165738;27;20443;-66
2022/09/05 00:43:52;;;;;;;9.27;2.97;;;;;;;19.01;83.35;100781.16;5119137;27;20062;-63
2022/09/05 00:46:39;;;;;;;7.63;3.67;;;;;;;19.20;81.02;100776.78;5166324;27;20581;-66
2022/09/05 00:49:26;;;;;;;5.27;2.67;;;;;;;19.30;78.71;100786.03;5166152;27;20446;-67
2022/09/05 00:52:10;;;;;;;4.83;2.50;;;;;;;19.25;78.69;100785.38;5163854;27;20280;-66
2022/09/05 00:55:06;;;;;;;12.60;2.90;;;;;;;19.31;78.90;100795.69;5112291;27;20314;-65
2022/09/05 00:58:02;;;;;;;53.07;30.23;;;;;;;19.57;78.75;100814.91;5160450;27;20371;-65
2022/09/05 01:00:54;;;;;;;17.70;8.67;;;;;;;19.68;78.72;100820.59;5162051;27;20287;-68
2022/09/05 01:04:14;;;;;;;24.73;8.37;;;;;;;19.70;78.07;100829.34;5158525;27;20291;-67
2022/09/05 01:07:11;;;;;;;12.33;3.43;;;;;;;19.78;79.25;100821.91;5160485;27;20509;-68
2022/09/05 01:10:13;;;;;;;14.40;5.87;;;;;;;19.51;78.44;100786.00;5121276;27;20276;-67
2022/09/05 01:17:33;;;;;;;9.37;4.50;;;;;;;19.79;80.63;100879.31;5162675;27;20283;-67
2022/09/05 01:20:35;;;;;;;33.87;5.37;;;;;;;19.71;81.28;100867.31;5140812;27;20621;-67
2022/09/05 01:23:41;;;;;;;17.17;3.90;;;;;;;19.63;81.29;100853.53;5160447;27;20292;-66
2022/09/05 01:26:52;;;;;;;8.83;3.60;;;;;;;19.74;81.69;100846.81;5160695;27;20281;-67
2022/09/05 01:29:46;;;;;;;11.90;3.80;;;;;;;20.03;81.81;100844.63;5162558;27;20288;-67
2022/09/05 01:32:50;;;;;;;11.07;3.60;;;;;;;20.25;81.52;100858.63;5162630;27;20284;-66
2022/09/05 01:39:19;;;;;;;9.70;4.17;;;;;;;20.54;79.16;100877.59;5161066;27;20280;-66
2022/09/05 01:42:46;;;;;;;25.97;5.57;;;;;;;20.59;78.45;100872.97;5160216;27;20314;-67
2022/09/05 01:45:50;;;;;;;44.80;8.67;;;;;;;20.55;77.79;100866.09;5161561;27;20341;-67
2022/09/05 01:48:37;;;;;;;15.23;3.90;;;;;;;20.27;76.90;100818.75;5108306;27;20600;-68
2022/09/05 01:57:54;;;;;;;61.20;5.53;;;;;;;20.00;78.23;100831.53;5162176;27;20292;-68
2022/09/05 02:00:59;;;;;;;12.83;3.67;;;;;;;19.76;78.34;100829.06;5162067;27;20296;-68
2022/09/05 02:04:30;;;;;;;22.67;3.87;;;;;;;19.86;79.23;100849.84;5160275;27;20538;-68
2022/09/05 02:07:13;;;;;;;9.57;3.20;;;;;;;19.70;79.23;100839.94;5161590;27;20280;-68
2022/09/05 02:10:47;;;;;;;16.57;3.60;;;;;;;19.75;79.66;100864.47;5159848;27;20291;-67
2022/09/05 02:13:32;;;;;;;13.50;3.10;;;;;;;19.70;79.65;100861.16;5161167;27;20337;-68
2022/09/05 02:16:31;;;;;;;13.43;3.20;;;;;;;19.33;79.59;100793.84;5161771;27;20308;-68
2022/09/05 02:19:29;;;;;;;16.20;3.33;;;;;;;19.81;79.20;100863.31;5160970;27;20276;-67
2022/09/05 02:22:24;;;;;;;13.47;2.67;;;;;;;19.59;78.86;100805.94;5161588;27;20283;-69
2022/09/05 02:25:21;;;;;;;20.60;3.23;;;;;;;19.52;78.76;100804.50;5161618;27;20304;-68
2022/09/05 02:28:28;;;;;;;11.73;3.37;;;;;;;19.90;77.96;100809.00;5161217;27;20317;-68
2022/09/05 02:31:11;;;;;;;10.63;3.30;;;;;;;19.97;77.50;100815.75;5124798;27;20295;-68
2022/09/05 02:34:15;;;;;;;13.93;3.60;;;;;;;20.09;77.76;100799.22;5160579;27;20731;-68
2022/09/05 02:37:12;;;;;;;20.43;3.80;;;;;;;19.95;77.20;100769.88;5161153;27;20913;-68
2022/09/05 02:40:24;;;;;;;16.20;3.43;;;;;;;20.02;75.92;100755.41;5165079;27;20268;-68
2022/09/05 02:43:46;;;;;;;14.30;3.03;;;;;;;19.88;75.50;100752.53;5164866;27;20663;-68
2022/09/05 02:47:26;;;;;;;15.10;3.80;;;;;;;19.86;76.68;100717.25;5125742;27;20275;-68
2022/09/05 02:50:31;;;;;;;12.20;3.70;;;;;;;20.00;76.65;100733.38;5164907;27;20284;-68
2022/09/05 02:53:36;;;;;;;37.07;4.57;;;;;;;20.02;77.66;100744.78;5138823;27;20280;-68
2022/09/05 02:56:57;;;;;;;22.80;4.00;;;;;;;20.18;77.47;100727.16;5164209;27;20292;-68
2022/09/05 03:00:12;;;;;;;26.10;4.00;;;;;;;20.22;75.39;100757.94;5133009;27;20357;-68
2022/09/05 03:03:13;;;;;;;24.10;4.03;;;;;;;19.81;75.94;100699.75;5165254;27;20288;-68
2022/09/05 03:06:17;;;;;;;13.63;3.03;;;;;;;20.28;75.78;100785.09;5164622;27;20284;-68
2022/09/05 03:09:40;;;;;;;11.30;3.57;;;;;;;20.20;75.63;100775.72;5163822;27;20466;-67
2022/09/05 03:12:57;;;;;;;11.70;3.07;;;;;;;20.19;75.91;100779.31;5083298;27;20593;-67
2022/09/05 03:16:21;;;;;;;39.50;5.03;;;;;;;20.18;75.92;100774.94;5160623;27;20403;-68
2022/09/05 03:20:20;;;;;;;21.55;4.05;;;;;;;20.25;76.48;100755.13;5164573;27;20276;-68
2022/09/05 03:23:53;;;;;;;10.63;2.97;;;;;;;20.33;75.95;100754.75;5079609;28;20232;-68
2022/09/05 03:27:06;;;;;;;42.23;5.80;;;;;;;20.36;75.98;100743.13;5163931;27;20304;-67
2022/09/05 03:30:20;;;;;;;15.47;4.20;;;;;;;20.39;75.33;100753.59;5164543;27;20287;-66
2022/09/05 03:33:35;;;;;;;16.67;3.77;;;;;;;20.37;75.43;100744.88;5136335;27;20817;-67
2022/09/05 03:36:54;;;;;;;28.87;5.30;;;;;;;20.40;76.05;100755.31;5161482;27;20386;-67
2022/09/05 03:39:42;;;;;;;;;;;;;;;20.34;75.88;100756.47;5150819;27;20292;-67
2022/09/05 03:42:54;;;;;;;20.70;4.13;;;;;;;20.29;76.43;100725.78;5164039;27;19915;-66
2022/09/05 03:46:05;;;;;;;17.20;4.10;;;;;;;20.14;75.49;100680.50;5163758;27;20618;-67
2022/09/05 03:49:18;;;;;;;31.50;5.35;;;;;;;20.08;75.27;100667.53;5162073;27;20284;-67
2022/09/05 03:52:43;;;;;;;13.57;4.47;;;;;;;20.14;74.51;100648.66;5163793;27;20053;-67
2022/09/05 03:56:10;;;;;;;58.20;8.70;;;;;;;20.28;74.39;100668.34;5162829;27;20608;-67
2022/09/05 03:59:35;;;;;;;18.17;4.57;;;;;;;20.17;74.81;100626.44;5163350;27;20351;-66
2022/09/05 04:02:30;;;;;;;17.83;4.33;;;;;;;20.55;75.21;100672.28;5163866;27;20319;-66
2022/09/05 04:05:38;;;;;;;10.40;4.80;;;;;;;20.60;75.67;100672.91;5163610;27;20573;-66
2022/09/05 04:08:49;;;;;;;9.88;3.97;;;;;;;20.60;75.52;100666.75;5164225;27;20280;-66
2022/09/05 04:11:45;;;;;;;34.33;6.00;;;;;;;20.30;75.54;100632.00;5128269;27;20267;-67
2022/09/05 04:14:40;;;;;;;9.73;4.20;;;;;;;20.35;75.46;100640.56;5112855;27;20288;-67
2022/09/05 04:20:42;;;;;;;18.93;4.80;;;;;;;20.17;76.66;100648.53;5159381;27;20589;-66
2022/09/05 04:23:39;;;;;;;11.13;4.70;;;;;;;20.08;77.00;100643.66;5163666;27;20296;-66
2022/09/05 04:26:55;;;;;;;32.30;6.20;;;;;;;19.95;77.59;100656.69;5162144;27;20301;-66
2022/09/05 04:29:45;;;;;;;12.13;4.85;;;;;;;19.81;78.19;100646.72;5120632;28;20410;-67
2022/09/05 04:32:31;;;;;;;17.47;4.93;;;;;;;19.63;78.34;100614.94;5119968;28;20229;-66
2022/09/05 04:35:32;;;;;;;14.87;5.40;;;;;;;19.58;78.25;100623.09;5118952;28;20419;-67
2022/09/05 04:38:39;;;;;;;21.90;6.43;;;;;;;19.68;78.91;100635.00;5065499;28;20301;-67
2022/09/05 04:41:28;;;;;;;18.60;5.67;;;;;;;19.78;79.30;100640.75;5099790;28;20278;-67
2022/09/05 04:44:20;;;;;;;19.20;6.00;;;;;;;19.67;79.55;100622.72;5099474;28;20304;-67
2022/09/05 04:47:11;;;;;;;13.52;5.63;;;;;;;19.79;80.09;100629.19;5049261;28;20274;-67
2022/09/05 04:49:59;;;;;;;17.53;6.20;;;;;;;19.76;80.03;100616.94;5097429;28;20068;-67
2022/09/05 04:53:25;;;;;;;13.13;5.43;;;;;;;19.77;80.57;100613.38;5099262;28;20274;-67
2022/09/05 04:56:10;;;;;;;27.10;6.37;;;;;;;19.70;80.81;100617.25;5097325;28;20285;-67
2022/09/05 04:59:03;;;;;;;21.23;5.83;;;;;;;19.60;81.22;100605.34;5099098;28;20270;-67
2022/09/05 05:02:12;;;;;;;18.63;6.50;;;;;;;19.45;81.79;100598.13;5098822;28;20390;-67
2022/09/05 05:05:14;;;;;;;14.50;6.70;;;;;;;19.46;82.82;100597.19;5098656;28;20682;-68
2022/09/05 05:08:19;;;;;;;17.73;8.00;;;;;;;19.32;84.07;100585.47;5141891;27;20276;-68
2022/09/05 05:17:56;;;;;;;14.77;7.47;;;;;;;19.03;87.17;100609.81;5138067;27;20301;-70
2022/09/05 05:21:13;;;;;;;14.37;7.83;;;;;;;18.96;88.12;100615.38;5117369;27;20321;-73
2022/09/05 05:24:13;;;;;;;22.53;7.50;;;;;;;18.87;88.85;100615.81;5140664;27;20602;-71
2022/09/05 05:27:35;;;;;;;13.27;8.30;;;;;;;18.71;89.41;100614.72;5141387;27;20484;-71
2022/09/05 05:30:12;;;;;;;21.07;8.63;;;;;;;18.62;90.27;100609.84;5139592;27;20304;-73
2022/09/05 05:32:54;;;;;;;12.18;8.45;;;;;;;18.53;91.19;100614.63;5139025;28;20276;-72
2022/09/05 05:35:37;;;;;;;15.37;8.83;;;;;;;18.50;91.75;100622.69;5140825;28;20043;-72
2022/09/05 05:38:35;;;;;;;16.87;9.40;;;;;;;18.43;92.67;100626.53;5140530;28;20332;-68
2022/09/05 05:41:29;;;;;;;15.63;9.30;;;;;;;18.36;92.77;100627.72;5139147;28;20284;-68
2022/09/05 05:44:14;;;;;;;15.33;9.47;;;;;;;18.30;93.16;100620.06;5140372;28;20342;-68
2022/09/05 05:47:09;;;;;;;19.90;10.43;;;;;;;18.20;93.34;100634.59;5141275;28;20296;-70
2022/09/05 05:50:09;;;;;;;21.02;10.40;;;;;;;18.16;94.07;100633.00;5141281;28;20409;-73
2022/09/05 05:53:17;;;;;;;18.87;9.57;;;;;;;18.14;94.57;100624.25;5114322;28;20051;-70
2022/09/05 05:56:41;;;;;;;15.57;9.77;;;;;;;18.11;95.28;100620.81;5141470;28;20285;-71
2022/09/05 06:00:02;;;;;;;16.00;10.67;;;;;;;18.06;95.59;100627.22;5086997;28;20336;-69
2022/09/05 06:03:32;;;;;;;19.17;10.33;;;;;;;17.99;96.10;100612.53;5098907;28;20284;-68
2022/09/05 06:06:31;;;;;;;16.40;11.10;;;;;;;17.96;96.48;100610.88;5140990;28;20281;-71
2022/09/05 06:09:46;;;;;;;23.10;10.77;;;;;;;17.94;96.94;100601.28;5141043;28;20315;-73
2022/09/05 06:13:38;;;;;;;16.33;10.77;;;;;;;17.88;97.13;100602.41;5141826;27;20297;-72
2022/09/05 06:17:19;;;;;;;15.50;10.87;;;;;;;17.81;97.55;100606.22;5060267;27;20373;-75
2022/09/05 06:20:34;;;;;;;17.30;11.80;;;;;;;17.80;97.86;100609.81;5119963;27;20324;-72
2022/09/05 06:24:11;;;;;;;15.17;10.23;;;;;;;17.82;97.96;100592.97;5144890;27;20276;-69
2022/09/05 06:27:11;;;;;;;16.83;11.03;;;;;;;17.83;98.28;100577.97;5144492;27;20291;-73
2022/09/05 06:30:07;;;;;;;15.63;11.00;;;;;;;17.77;98.32;100573.75;5090657;27;20297;-71
2022/09/05 06:33:15;;;;;;;23.03;11.47;;;;;;;17.78;98.51;100569.31;5144796;27;20305;-71
2022/09/05 06:36:25;;;;;;;14.67;10.87;;;;;;;17.79;98.85;100561.31;5144076;27;20281;-71
2022/09/05 06:39:25;;;;;;;15.97;10.40;;;;;;;17.69;98.43;100550.25;5145170;27;20349;-70
2022/09/05 06:42:41;;;;;;;13.37;10.17;;;;;;;17.68;98.21;100548.56;5141894;27;20332;-68
2022/09/05 06:45:40;;;;;;;17.83;10.03;;;;;;;17.69;97.74;100544.13;5145039;27;20574;-71
2022/09/05 06:48:33;;;;;;;16.50;10.10;;;;;;;17.77;97.66;100562.31;5144365;27;20782;-73
2022/09/05 06:51:56;;;;;;;15.27;10.60;;;;;;;17.76;97.51;100552.66;5101912;27;20331;-74
2022/09/05 06:55:29;;;;;;;14.60;11.10;;;;;;;17.66;97.85;100513.41;5122324;27;20047;-72
2022/09/05 06:58:32;;;;;;;18.20;10.77;;;;;;;17.87;97.81;100553.09;5144195;27;20451;-70
2022/09/05 07:01:10;;;;;;;21.20;11.53;;;;;;;17.84;97.94;100554.09;5144452;27;20288;-72
2022/09/05 07:04:15;;;;;;;14.87;11.40;;;;;;;17.83;98.09;100555.03;5143317;27;20277;-70
2022/09/05 07:07:21;;;;;;;16.00;10.43;;;;;;;17.83;98.17;100557.66;5143701;27;20277;-71
2022/09/05 07:10:13;;;;;;;15.13;11.10;;;;;;;17.81;98.18;100563.94;5142915;27;20482;-72
2022/09/05 07:13:15;;;;;;;16.83;10.63;;;;;;;17.46;97.84;100521.28;5143180;27;20352;-74
2022/09/05 07:16:26;;;;;;;19.75;11.38;;;;;;;17.68;97.79;100568.84;5095326;27;20284;-67
2022/09/05 07:22:56;;;;;;;17.20;10.93;;;;;;;17.49;97.72;100566.06;5139349;27;20295;-69
2022/09/05 07:26:01;;;;;;;12.93;11.00;;;;;;;17.27;97.79;100525.59;5143531;27;20269;-72
2022/09/05 07:28:52;;;;;;;12.63;10.87;;;;;;;17.39;97.95;100551.50;5143640;27;20338;-70
2022/09/05 07:31:54;;;;;;;15.73;10.70;;;;;;;16.92;98.08;100456.56;5094741;27;20316;-70
2022/09/05 07:34:53;;;;;;;15.03;10.37;;;;;;;17.41;98.11;100531.19;5106667;28;20293;-71
2022/09/05 07:37:55;;;;;;;13.53;10.47;;;;;;;17.02;97.81;100479.91;5123414;28;20610;-71
2022/09/05 07:40:43;;;;;;;16.60;10.40;;;;;;;17.29;97.46;100510.56;5104128;28;20276;-69
2022/09/05 07:46:56;;;;;;;12.30;10.00;;;;;;;17.29;97.50;100502.63;5122843;28;20604;-69
2022/09/05 07:49:34;;;;;;;11.95;9.40;;;;;;;17.25;97.47;100500.13;5121121;28;20349;-70
2022/09/05 07:52:43;;;;;;;14.53;9.77;;;;;;;17.32;97.39;100494.56;5122012;28;20089;-69
2022/09/05 07:55:41;;;;;;;12.52;9.93;;;;;;;17.34;97.58;100493.59;5121649;28;20281;-69
2022/09/05 07:58:53;;;;;;;14.93;10.23;;;;;;;17.38;97.47;100502.25;5095038;28;20386;-72
2022/09/05 08:02:00;;;;;;;15.07;9.63;;;;;;;17.38;97.19;100512.84;5122556;28;20289;-68
2022/09/05 08:04:46;;;;;;;12.20;10.00;;;;;;;17.10;96.77;100491.94;5121849;28;20515;-71
2022/09/05 08:07:36;;;;;;;15.97;10.60;;;;;;;17.17;96.96;100520.69;5122659;28;20574;-68
2022/09/05 08:10:26;;;;;;;13.00;9.17;;;;;;;17.16;96.79;100534.81;5122773;28;20316;-70
2022/09/05 08:14:05;;;;;;;13.53;8.07;;;;;;;17.02;95.64;100542.38;5121900;28;20291;-67
2022/09/05 08:17:00;;;;;;;11.07;7.63;;;;;;;16.49;94.84;100484.56;5078325;28;20276;-68
2022/09/05 08:19:54;;;;;;;9.63;7.70;;;;;;;16.76;94.95;100562.69;5122800;28;20376;-76
2022/09/05 08:22:53;;;;;;;10.30;8.23;;;;;;;16.68;95.32;100561.28;5122078;28;20293;-71
2022/09/05 08:25:37;;;;;;;8.03;6.53;;;;;;;16.28;94.82;100515.25;5122186;28;21140;-70
2022/09/05 08:28:55;;;;;;;9.10;6.50;;;;;;;16.51;95.00;100556.59;5122177;28;20293;-68
2022/09/05 08:31:52;;;;;;;6.63;5.87;;;;;;;16.45;94.58;100548.91;5048492;28;20346;-67
2022/09/05 08:34:39;;;;;;;8.23;5.97;;;;;;;16.39;94.48;100557.91;5086218;28;20590;-69
2022/09/05 08:40:34;;;;;;;6.32;5.30;;;;;;;16.24;93.94;100575.13;5039985;28;20344;-69
2022/09/05 08:43:22;;;;;;;7.30;5.37;;;;;;;16.17;94.01;100563.06;5090379;28;20055;-67
2022/09/05 08:46:33;;;;;;;7.47;5.40;;;;;;;15.94;93.72;100540.13;5088784;28;20063;-70
2022/09/05 08:49:50;;;;;;;5.90;5.00;;;;;;;16.02;93.86;100559.16;5088824;28;20538;-68
2022/09/05 08:56:26;;;;;;;7.83;5.50;;;;;;;15.85;94.01;100528.16;5087976;28;20972;-70
2022/09/05 08:59:21;;;;;;;9.57;5.70;;;;;;;15.80;94.36;100559.06;5089086;28;20764;-69
2022/09/05 09:02:52;;;;;;;7.32;5.30;;;;;;;15.80;94.88;100566.06;5090331;28;20295;-68
2022/09/05 09:06:25;;;;;;;7.57;5.57;;;;;;;15.79;95.42;100575.75;5087851;28;20036;-68
2022/09/05 09:09:44;;;;;;;7.57;5.20;;;;;;;15.80;95.81;100574.88;4963133;28;20287;-69
2022/09/05 09:13:01;;;;;;;7.90;5.70;;;;;;;15.76;95.78;100551.31;5037582;28;20120;-68
2022/09/05 09:16:09;;;;;;;8.40;5.47;;;;;;;15.81;95.70;100567.81;5022224;28;20309;-67
2022/09/05 09:19:16;;;;;;;6.90;5.20;;;;;;;15.78;95.64;100568.78;5026703;28;20329;-68
2022/09/05 09:22:13;;;;;;;7.97;5.63;;;;;;;15.75;95.63;100566.25;5050454;28;20314;-68
2022/09/05 09:25:23;;;;;;;7.97;5.83;;;;;;;15.69;96.01;100566.41;5009639;28;20279;-67
2022/09/05 09:28:46;;;;;;;8.77;6.40;;;;;;;15.66;96.31;100558.59;5059050;28;20271;-68
2022/09/05 09:31:56;;;;;;;7.37;5.80;;;;;;;15.66;96.37;100558.59;4982453;28;20469;-69
2022/09/05 09:35:22;;;;;;;12.40;6.50;;;;;;;15.64;96.64;100561.28;4967355;28;20281;-67
2022/09/05 09:38:37;;;;;;;8.33;6.47;;;;;;;15.61;96.58;100573.69;4999276;28;20285;-68
2022/09/05 09:41:40;;;;;;;12.17;7.63;;;;;;;15.64;97.06;100579.72;4999127;28;20329;-69
2022/09/05 09:44:57;;;;;;;13.13;8.43;;;;;;;15.68;97.11;100570.81;4998290;28;20356;-69
2022/09/05 09:48:25;;;;;;;17.20;12.27;;;;;;;15.63;97.29;100556.09;5060983;28;20334;-68
2022/09/05 09:51:21;;;;;;;13.67;10.43;;;;;;;15.59;97.50;100538.66;5062590;28;20345;-70
2022/09/05 09:54:31;;;;;;;13.35;10.13;;;;;;;15.57;97.94;100540.47;5061575;28;20285;-69
2022/09/05 09:57:34;;;;;;;12.50;9.67;;;;;;;15.63;98.27;100524.47;5062669;28;20238;-69
2022/09/05 10:00:22;;;;;;;11.40;8.63;;;;;;;15.66;98.31;100513.84;5061684;28;20680;-66
2022/09/05 10:03:41;;;;;;;14.53;9.33;;;;;;;15.68;98.00;100527.81;5062224;28;20286;-67
2022/09/05 10:07:24;;;;;;;11.90;9.30;;;;;;;15.62;98.47;100509.56;5075589;28;20320;-67
2022/09/05 10:11:02;;;;;;;9.90;8.50;;;;;;;15.66;98.76;100505.94;5104327;28;20291;-68
2022/09/05 10:14:38;;;;;;;10.63;8.23;;;;;;;15.66;98.99;100513.84;5103717;28;20273;-68
2022/09/05 10:18:09;;;;;;;11.13;7.53;;;;;;;15.67;99.19;100520.81;5040735;28;20304;-67
2022/09/05 10:21:25;;;;;;;9.50;7.20;;;;;;;15.63;99.33;100532.38;5015093;28;20284;-67
2022/09/05 10:24:29;;;;;;;10.93;7.87;;;;;;;15.65;99.72;100538.44;5040937;28;20343;-68
2022/09/05 10:30:23;;;;;;;10.45;7.63;;;;;;;15.67;100.00;100541.88;5041525;28;20441;-67
2022/09/05 10:34:11;;;;;;;9.97;6.70;;;;;;;15.62;100.00;100538.53;5044778;28;20124;-67
2022/09/05 10:37:21;;;;;;;9.80;6.33;;;;;;;15.61;100.00;100537.69;4981585;28;20270;-66
2022/09/05 10:40:15;;;;;;;10.23;6.93;;;;;;;15.62;100.00;100543.81;4954147;28;20694;-67
2022/09/05 10:43:07;;;;;;;9.80;6.67;;;;;;;15.62;100.00;100554.34;4951225;28;20286;-66
2022/09/05 10:46:40;;;;;;;9.37;6.03;;;;;;;15.64;100.00;100557.78;4982706;28;20286;-66
2022/09/05 10:49:48;;;;;;;8.53;6.20;;;;;;;15.64;100.00;100558.66;4962078;28;20282;-66
2022/09/05 10:52:42;;;;;;;9.43;5.87;;;;;;;15.66;100.00;100555.97;4982517;28;20283;-67
2022/09/05 10:55:50;;;;;;;7.30;5.40;;;;;;;15.68;100.00;100551.53;4996500;28;20311;-67
2022/09/05 10:58:52;;;;;;;7.65;5.38;;;;;;;15.62;100.00;100543.81;5042668;28;20629;-68
2022/09/05 11:02:06;;;;;;;8.80;5.27;;;;;;;15.45;100.00;100528.53;5038434;28;20061;-66
2022/09/05 11:05:32;;;;;;;9.33;7.57;;;;;;;15.60;100.00;100550.88;5041785;28;20577;-68
2022/09/05 11:08:17;;;;;;;9.80;8.07;;;;;;;15.24;100.00;100495.88;5042836;28;20358;-67
2022/09/05 11:11:03;;;;;;;13.53;8.30;;;;;;;15.61;100.00;100553.50;5040811;28;20294;-68
2022/09/05 11:13:48;;;;;;;6.83;5.20;;;;;;;15.60;100.00;100545.63;5090382;28;20798;-67
2022/09/05 11:16:40;;;;;;;7.60;5.50;;;;;;;15.67;100.00;100555.06;5072100;28;20317;-67
2022/09/05 11:19:25;;;;;;;5.97;5.10;;;;;;;15.68;100.00;100543.63;5077618;28;20370;-67
2022/09/05 11:25:32;;;;;;;10.70;6.50;;;;;;;15.63;100.00;100529.75;5102962;28;20298;-66
2022/09/05 11:28:22;;;;;;;9.50;5.90;;;;;;;15.66;100.00;100524.38;5103014;28;20312;-66
2022/09/05 11:31:14;;;;;;;12.83;6.13;;;;;;;15.60;100.00;100508.75;5101392;28;20278;-67
2022/09/05 11:34:46;;;;;;;14.00;8.67;;;;;;;15.72;100.00;100513.63;5120105;27;20297;-67
2022/09/05 11:41:58;;;;;;;12.63;6.07;;;;;;;15.63;100.00;100508.66;5128513;27;20302;-67
2022/09/05 11:48:41;;;;;;;11.80;6.13;;;;;;;15.67;100.00;100499.72;5141946;27;20336;-66
2022/09/05 11:56:10;;;;;;;7.77;5.23;;;;;;;15.69;100.00;100521.63;5113943;27;20276;-67
2022/09/05 11:59:17;;;;;;;7.97;5.60;;;;;;;15.70;100.00;100526.00;5099020;27;20312;-69
2022/09/05 12:02:32;;;;;;;6.57;4.53;;;;;;;15.08;100.00;100427.94;5142324;27;20280;-68
2022/09/05 12:05:53;;;;;;;6.60;5.00;;;;;;;15.70;99.99;100508.44;5142757;27;20280;-69
2022/09/05 12:08:55;;;;;;;7.10;5.60;;;;;;;15.79;99.80;100509.91;5090203;27;20509;-68
2022/09/05 12:11:54;;;;;;;8.03;5.00;;;;;;;15.76;99.67;100520.53;5141745;27;20281;-67
2022/09/05 12:14:41;;;;;;;8.20;5.57;;;;;;;15.76;99.65;100517.06;5098102;27;21141;-67
2022/09/05 12:17:39;;;;;;;7.67;5.27;;;;;;;15.75;99.83;100524.09;5142804;27;20325;-66
2022/09/05 12:20:47;;;;;;;6.87;5.33;;;;;;;15.73;100.00;100523.28;5142316;27;20323;-66
2022/09/05 12:23:46;;;;;;;14.13;7.30;;;;;;;15.70;100.00;100526.00;5140376;27;20284;-67
2022/09/05 12:26:53;;;;;;;22.03;14.57;;;;;;;15.65;100.00;100522.63;5142534;27;20265;-67
2022/09/05 12:30:09;;;;;;;10.60;6.30;;;;;;;15.70;100.00;100510.19;5142803;27;20281;-66
2022/09/05 12:33:09;;;;;;;8.60;5.50;;;;;;;15.51;100.00;100473.91;5106351;27;20296;-67
2022/09/05 12:36:34;;;;;;;8.40;5.43;;;;;;;15.76;100.00;100501.25;5141756;27;20303;-66
2022/09/05 12:39:35;;;;;;;7.40;5.50;;;;;;;15.78;100.00;100502.91;5142326;27;20284;-66
2022/09/05 12:49:36;;;;;;;13.13;7.47;;;;;;;15.84;100.00;100489.50;5128915;27;20325;-66
2022/09/05 12:52:48;;;;;;;8.83;6.13;;;;;;;15.76;100.00;100483.66;5098440;27;20289;-66
2022/09/05 12:55:35;;;;;;;10.03;6.47;;;;;;;15.54;100.00;100442.19;5104719;27;20043;-68
2022/09/05 12:58:28;;;;;;;6.70;5.53;;;;;;;15.84;100.00;100481.63;5092425;27;20337;-66
2022/09/05 13:01:39;;;;;;;8.70;5.90;;;;;;;15.86;100.00;100469.25;5144712;27;20300;-65
2022/09/05 13:04:40;;;;;;;7.07;6.00;;;;;;;15.65;100.00;100419.91;5144695;27;20347;-64
2022/09/05 13:10:53;;;;;;;10.93;6.30;;;;;;;15.95;100.00;100468.94;5144991;27;20292;-65
2022/09/05 13:13:56;;;;;;;8.10;6.00;;;;;;;15.98;100.00;100460.06;5106924;27;20307;-64
2022/09/05 13:17:00;;;;;;;10.50;5.80;;;;;;;16.04;100.00;100440.53;5144738;27;20466;-65
2022/09/05 13:19:50;;;;;;;9.43;6.07;;;;;;;16.03;100.00;100439.66;5109099;27;20737;-67
2022/09/05 13:25:32;;;;;;;6.90;5.30;;;;;;;15.89;100.00;100384.81;5143388;27;20444;-67
2022/09/05 13:28:13;;;;;;;11.83;5.67;;;;;;;16.14;100.00;100416.41;5095521;27;20326;-67
2022/09/05 13:31:06;;;;;;;9.07;5.10;;;;;;;16.11;100.00;100405.13;5111711;27;20291;-66
2022/09/05 13:34:11;;;;;;;6.60;4.93;;;;;;;16.13;100.00;100413.84;5143388;27;20285;-66
2022/09/05 13:37:21;;;;;;;5.73;4.80;;;;;;;16.11;100.00;100415.66;5144005;28;20311;-65
2022/09/05 13:40:23;;;;;;;6.20;5.03;;;;;;;16.13;100.00;100419.09;5144074;28;20502;-67
2022/09/05 13:43:14;;;;;;;6.63;4.70;;;;;;;16.13;100.00;100406.78;5145103;28;20337;-66
2022/09/05 13:49:24;;;;;;;11.00;5.70;;;;;;;16.06;100.00;100397.38;5117501;28;20305;-65
2022/09/05 13:52:24;;;;;;;8.30;4.33;;;;;;;16.09;100.00;100393.78;5144655;28;20581;-66
2022/09/05 13:55:32;;;;;;;7.30;3.97;;;;;;;16.07;100.00;100390.31;5144135;28;20300;-66
2022/09/05 13:58:32;;;;;;;7.20;4.00;;;;;;;16.06;100.00;100378.94;5143590;28;20272;-65
2022/09/05 14:01:45;;;;;;;6.93;4.10;;;;;;;16.09;100.00;100380.59;5144289;28;20487;-66
2022/09/05 14:05:14;;;;;;;9.13;4.03;;;;;;;16.12;100.00;100378.69;5144262;28;20516;-65
2022/09/05 14:08:23;;;;;;;8.23;4.40;;;;;;;16.10;100.00;100382.28;5144235;28;20296;-66
2022/09/05 14:11:43;;;;;;;5.17;3.93;;;;;;;16.06;100.00;100370.16;5143033;28;20340;-67
2022/09/05 14:14:48;;;;;;;6.07;4.03;;;;;;;16.07;100.00;100382.41;5142823;28;20408;-65
2022/09/05 14:21:14;;;;;;;11.30;4.17;;;;;;;16.08;100.00;100392.06;5143135;28;20289;-66
2022/09/05 14:21:36;;;;;;;4.83;3.33;;;;;;;16.07;100.00;100382.41;5142744;28;20308;-67
2022/09/05 14:24:26;;;;;;;7.20;4.53;;;;;;;16.08;100.00;100389.44;5091379;28;20296;-68
2022/09/05 14:27:40;;;;;;;9.77;4.20;;;;;;;15.93;100.00;100370.63;5140711;28;20330;-66
2022/09/05 14:30:54;;;;;;;7.13;4.10;;;;;;;16.04;100.00;100398.34;5144531;28;20502;-66
2022/09/05 14:34:14;;;;;;;5.90;3.50;;;;;;;15.70;100.00;100349.50;5138643;27;20304;-67
2022/09/05 14:37:22;;;;;;;5.93;3.80;;;;;;;16.12;100.00;100401.56;5146267;27;20320;-65
2022/09/05 14:44:37;;;;;;;6.22;3.60;;;;;;;16.13;100.00;100398.03;5144297;27;20272;-66
2022/09/05 14:48:09;;;;;;;5.63;3.20;;;;;;;16.13;100.00;100383.06;5132684;27;20072;-66
2022/09/05 14:51:14;;;;;;;6.00;3.85;;;;;;;16.09;100.00;100385.84;5147081;27;20518;-67
2022/09/05 14:54:13;;;;;;;4.40;3.20;;;;;;;16.05;100.00;100378.97;5114623;27;20062;-64
2022/09/05 14:57:19;;;;;;;3.80;3.40;;;;;;;15.73;100.00;100320.44;5147553;27;20348;-66
2022/09/05 15:00:28;;;;;;;7.20;3.40;;;;;;;16.12;100.00;100375.19;5147509;27;20292;-65
2022/09/05 15:03:27;;;;;;;;;;;;;;;16.00;100.00;100344.03;5147724;27;20366;-67
2022/09/05 15:06:24;;;;;;;4.60;3.20;;;;;;;16.11;100.00;100347.13;5146869;27;20429;-64
2022/09/05 15:09:10;;;;;;;7.93;3.10;;;;;;;16.19;100.00;100355.59;5147569;27;20289;-67
2022/09/05 15:12:20;;;;;;;8.20;3.47;;;;;;;16.17;100.00;100342.50;5147158;27;20339;-66
2022/09/05 15:15:34;;;;;;;7.93;3.67;;;;;;;16.18;100.00;100349.47;5147065;27;20314;-66
2022/09/05 15:18:52;;;;;;;6.77;3.77;;;;;;;15.94;100.00;100290.63;5146964;27;20352;-65
2022/09/05 15:21:43;;;;;;;4.93;3.10;;;;;;;16.19;100.00;100308.16;5099053;27;20323;-67
2022/09/05 15:24:29;;;;;;;5.77;3.20;;;;;;;16.07;100.00;100291.00;5067028;28;20299;-67
2022/09/05 15:27:08;;;;;;;5.37;3.50;;;;;;;16.24;100.00;100316.72;5083838;28;20295;-67
2022/09/05 15:30:01;;;;;;;6.30;3.13;;;;;;;16.25;100.00;100307.91;5033690;28;20290;-67
2022/09/05 15:32:40;;;;;;;9.90;3.50;;;;;;;16.26;100.00;100314.91;5083837;28;20080;-67
2022/09/05 15:38:54;;;;;;;3.77;3.27;;;;;;;16.27;100.00;100300.78;5081741;28;20310;-67